Time;durP1;ratioP1;P1;durP2;ratioP2;P2;SDS_P1;SDS_P2;PMS_P1;PMS_P2;Temp;Humidity;BMP_temperature;BMP_pressure;BME280_temperature;BME280_humidity;BME280_pressure;Samples;Min_cycle;Max_cycle;Signal;HPM_P1;HPM_P2
2022/11/14 00:00:32;;;;;;;12.00;9.00;;;5.60;99.90;;;9.06;57.10;97559.03;4910014;29;20055;-54
2022/11/14 00:03:18;;;;;;;14.67;8.43;;;5.60;99.90;;;9.08;57.14;97561.53;4907109;29;20055;-56
2022/11/14 00:06:07;;;;;;;12.40;8.40;;;5.60;99.90;;;9.11;57.11;97555.09;4910898;29;20047;-57
2022/11/14 00:08:53;;;;;;;11.43;7.87;;;5.60;99.90;;;9.05;57.12;97559.19;4909915;29;20050;-54
2022/11/14 00:11:40;;;;;;;13.17;8.57;;;5.60;99.90;;;9.06;57.19;97555.56;4905799;29;20365;-56
2022/11/14 00:14:27;;;;;;;12.67;8.07;;;5.60;99.90;;;9.07;57.06;97566.03;4909995;29;20051;-57
2022/11/14 00:17:14;;;;;;;13.20;7.63;;;5.60;99.90;;;9.06;57.22;97577.63;4908875;29;20051;-53
2022/11/14 00:20:01;;;;;;;18.13;10.73;;;5.60;99.90;;;9.07;57.23;97576.66;4905979;29;20055;-56
2022/11/14 00:22:48;;;;;;;17.30;11.10;;;5.60;99.90;;;9.06;57.27;97580.28;4909479;29;20056;-57
2022/11/14 00:25:34;;;;;;;11.17;8.37;;;5.60;99.90;;;9.10;57.04;97572.03;4908213;29;20055;-57
2022/11/14 00:28:21;;;;;;;14.87;8.80;;;5.60;99.90;;;9.12;56.96;97578.00;4906831;29;20372;-57
2022/11/14 00:31:10;;;;;;;12.57;9.13;;;5.60;99.90;;;9.15;57.00;97575.03;4910166;29;20051;-57
2022/11/14 00:33:56;;;;;;;13.70;8.73;;;5.60;99.90;;;9.15;57.08;97575.88;4910471;29;20047;-57
2022/11/14 00:36:43;;;;;;;14.50;8.97;;;5.70;99.90;;;9.18;56.72;97562.28;4909977;29;20055;-57
2022/11/14 00:39:30;;;;;;;11.57;9.10;;;5.70;99.90;;;9.17;56.74;97562.44;4912475;29;20052;-57
2022/11/14 00:42:17;;;;;;;11.33;7.70;;;5.70;99.90;;;9.18;56.67;97561.44;4910497;29;20051;-58
2022/11/14 00:45:04;;;;;;;9.47;6.97;;;5.70;99.90;;;9.21;56.74;97559.31;4909253;29;20451;-57
2022/11/14 00:47:51;;;;;;;12.67;7.37;;;5.70;99.90;;;9.21;56.88;97564.63;4913191;29;20046;-55
2022/11/14 00:50:38;;;;;;;14.07;8.20;;;5.70;99.90;;;9.17;56.67;97565.94;4911567;29;20067;-56
2022/11/14 00:53:24;;;;;;;11.13;7.57;;;5.70;99.90;;;9.15;56.80;97572.38;4909576;29;20047;-56
2022/11/14 00:56:11;;;;;;;12.13;8.93;;;5.60;99.90;;;9.15;56.90;97562.59;4913188;29;20051;-58
2022/11/14 00:58:57;;;;;;;12.67;8.53;;;5.70;99.90;;;9.15;56.76;97559.09;4911635;29;20075;-57
2022/11/14 01:01:44;;;;;;;13.40;8.77;;;5.60;99.90;;;9.13;56.71;97561.06;4909668;29;20066;-57
2022/11/14 01:04:31;;;;;;;15.30;9.27;;;5.60;99.90;;;9.14;56.61;97549.47;4911574;29;20369;-56
2022/11/14 01:07:17;;;;;;;12.60;9.17;;;5.60;99.90;;;9.15;56.44;97551.13;4911523;29;20143;-54
2022/11/14 01:10:04;;;;;;;12.60;8.97;;;5.60;99.90;;;9.15;56.46;97545.81;4908199;29;20046;-57
2022/11/14 01:12:51;;;;;;;11.63;8.17;;;5.60;99.90;;;9.15;56.44;97541.34;4911671;29;20047;-55
2022/11/14 01:15:41;;;;;;;15.67;9.93;;;5.60;99.90;;;9.13;56.37;97537.16;4909456;29;20055;-56
2022/11/14 01:18:28;;;;;;;12.47;8.30;;;5.60;99.90;;;9.09;56.41;97531.31;4913133;29;20059;-56
2022/11/14 01:21:16;;;;;;;13.33;9.23;;;5.50;99.90;;;9.11;56.54;97537.34;4910553;29;20051;-56
2022/11/14 01:24:03;;;;;;;13.13;8.57;;;5.60;99.90;;;9.09;56.67;97533.16;4908490;29;20101;-57
2022/11/14 01:26:50;;;;;;;14.17;9.77;;;5.60;99.90;;;9.13;56.59;97526.53;4913122;29;20055;-57
2022/11/14 01:29:36;;;;;;;12.03;8.27;;;5.60;99.90;;;9.12;56.71;97527.56;4911333;29;20361;-57
2022/11/14 01:32:24;;;;;;;12.10;8.60;;;5.60;99.90;;;9.12;56.60;97523.06;4908734;29;20047;-55
2022/11/14 01:35:11;;;;;;;13.37;8.33;;;5.60;99.90;;;9.11;56.47;97520.56;4912638;29;20047;-55
2022/11/14 01:37:57;;;;;;;14.17;8.77;;;5.60;99.90;;;9.07;56.42;97518.22;4911341;29;20110;-57
2022/11/14 01:40:45;;;;;;;16.17;10.63;;;5.50;99.90;;;9.10;56.84;97511.75;4909235;29;20055;-57
2022/11/14 01:43:38;;;;;;;14.53;8.93;;;5.60;99.90;;;9.11;57.10;97502.81;4910965;29;20258;-56
2022/11/14 01:46:36;;;;;;;12.27;8.73;;;5.60;99.90;;;9.10;56.82;97501.13;4910007;29;20361;-56
2022/11/14 01:49:43;;;;;;;15.43;8.50;;;5.60;99.90;;;9.02;56.64;97506.41;4913750;29;20050;-56
2022/11/14 01:52:36;;;;;;;11.63;7.90;;;5.50;99.90;;;9.03;56.72;97502.75;4909888;29;20066;-57
2022/11/14 01:55:23;;;;;;;12.30;8.53;;;5.50;99.90;;;9.06;56.71;97494.47;4907381;29;20054;-55
2022/11/14 01:58:10;;;;;;;13.00;8.70;;;5.60;99.90;;;9.12;56.74;97496.50;4910628;29;20055;-57
2022/11/14 02:00:57;;;;;;;11.70;8.37;;;5.60;99.90;;;9.12;56.53;97498.34;4909422;29;20054;-54
2022/11/14 02:03:48;;;;;;;11.57;8.53;;;5.60;99.90;;;9.12;56.32;97485.06;4908180;29;20051;-57
2022/11/14 02:06:36;;;;;;;13.07;9.00;;;5.60;99.90;;;9.12;56.40;97485.88;4910930;29;20054;-56
2022/11/14 02:09:24;;;;;;;12.57;8.50;;;5.60;99.90;;;9.11;56.58;97480.72;4910144;29;20046;-57
2022/11/14 02:12:14;;;;;;;13.63;8.53;;;5.60;99.90;;;9.13;56.82;97481.41;4911626;29;20185;-54
2022/11/14 02:15:01;;;;;;;12.37;8.47;;;5.60;99.90;;;9.13;56.62;97484.06;4910248;29;20400;-55
2022/11/14 02:17:48;;;;;;;10.93;8.00;;;5.70;99.90;;;9.16;56.79;97473.13;4908542;29;20055;-56
2022/11/14 02:20:41;;;;;;;11.20;7.83;;;5.80;99.90;;;9.17;56.75;97472.97;4911424;29;20055;-53
2022/11/14 02:23:31;;;;;;;12.93;8.07;;;5.80;99.90;;;9.23;56.78;97466.22;4908691;29;20075;-53
2022/11/14 02:26:20;;;;;;;12.33;8.17;;;5.80;99.90;;;9.16;56.40;97481.91;4908117;29;20376;-54
2022/11/14 02:29:09;;;;;;;10.60;8.30;;;5.70;99.90;;;9.11;56.60;97480.72;4911232;29;20047;-57
2022/11/14 02:31:56;;;;;;;12.50;7.70;;;5.60;99.90;;;9.07;56.57;97481.03;4908529;29;20050;-56
2022/11/14 02:34:43;;;;;;;12.17;9.03;;;5.60;99.90;;;9.10;56.39;97482.56;4907079;29;20047;-53
2022/11/14 02:37:30;;;;;;;12.57;9.00;;;5.60;99.90;;;9.16;56.59;97478.44;4911232;29;20070;-56
2022/11/14 02:40:16;;;;;;;13.63;8.37;;;5.70;99.90;;;9.19;56.38;97476.31;4908515;29;20062;-55
2022/11/14 02:43:04;;;;;;;15.43;8.00;;;5.70;99.90;;;9.21;56.41;97482.28;4907617;29;20072;-57
2022/11/14 02:45:50;;;;;;;11.93;8.27;;;5.80;99.90;;;9.22;56.34;97472.50;4910860;29;20103;-55
2022/11/14 02:48:37;;;;;;;11.07;7.63;;;5.90;99.90;;;9.19;56.50;97465.69;4908653;29;20043;-57
2022/11/14 02:51:23;;;;;;;9.60;7.03;;;5.90;99.90;;;9.17;56.41;97475.63;4907466;29;20066;-57
2022/11/14 02:54:10;;;;;;;10.40;7.00;;;5.80;99.90;;;9.18;56.47;97465.84;4909780;29;20051;-57
2022/11/14 02:56:57;;;;;;;10.87;7.50;;;5.80;99.90;;;9.15;56.51;97464.34;4908885;29;20341;-54
2022/11/14 02:59:43;;;;;;;11.33;7.30;;;5.80;99.90;;;9.11;56.43;97464.78;4906921;29;20278;-57
2022/11/14 03:02:30;;;;;;;10.90;8.13;;;5.70;99.90;;;9.12;56.61;97456.66;4911113;29;20047;-54
2022/11/14 03:05:16;;;;;;;11.37;7.90;;;5.70;99.90;;;9.17;56.63;97462.34;4908422;29;20055;-57
2022/11/14 03:08:03;;;;;;;10.63;7.53;;;5.80;99.90;;;9.18;56.65;97458.69;4906836;29;20232;-55
2022/11/14 03:10:50;;;;;;;12.10;8.03;;;5.80;99.90;;;9.19;56.62;97459.50;4907844;29;20047;-57
2022/11/14 03:13:37;;;;;;;12.37;8.00;;;5.80;99.90;;;9.19;56.58;97459.50;4907412;29;20055;-57
2022/11/14 03:16:23;;;;;;;10.43;7.13;;;5.80;99.90;;;9.20;56.64;97456.72;4911336;29;20377;-57
2022/11/14 03:19:10;;;;;;;11.60;8.23;;;5.80;99.90;;;9.20;56.49;97462.03;4909505;29;20288;-57
2022/11/14 03:21:56;;;;;;;10.70;8.47;;;5.90;99.90;;;9.22;56.69;97456.56;4907637;29;20059;-55
2022/11/14 03:24:43;;;;;;;10.80;7.70;;;5.90;99.90;;;9.22;56.61;97453.91;4910900;29;20071;-56
2022/11/14 03:27:30;;;;;;;11.77;8.17;;;5.90;99.90;;;9.21;56.66;97455.72;4908655;29;20051;-54
2022/11/14 03:30:17;;;;;;;16.13;9.43;;;5.90;99.90;;;9.20;56.74;97456.72;4907814;29;20054;-52
2022/11/14 03:33:03;;;;;;;12.30;8.70;;;5.90;99.90;;;9.25;56.67;97445.63;4910232;29;20051;-56
2022/11/14 03:35:51;;;;;;;12.93;8.07;;;5.80;99.90;;;9.24;56.42;97444.78;4909130;29;20063;-56
2022/11/14 03:38:37;;;;;;;12.27;7.53;;;5.80;99.90;;;9.22;56.39;97437.97;4907730;29;20055;-56
2022/11/14 03:41:24;;;;;;;15.13;9.70;;;5.70;99.90;;;9.19;56.48;97444.44;4911146;29;20059;-57
2022/11/14 03:44:11;;;;;;;12.07;7.83;;;5.70;99.90;;;9.20;56.29;97434.63;4908887;29;20047;-57
2022/11/14 03:46:57;;;;;;;14.20;9.50;;;5.70;99.90;;;9.15;56.46;97435.13;4907219;29;20126;-56
2022/11/14 03:49:44;;;;;;;13.23;8.63;;;5.70;99.90;;;9.11;56.61;97428.47;4910622;29;20047;-56
2022/11/14 03:52:30;;;;;;;11.30;7.53;;;5.60;99.90;;;9.11;56.72;97419.63;4909391;29;20369;-55
2022/11/14 03:55:17;;;;;;;11.43;7.70;;;5.60;99.90;;;9.12;56.50;97421.31;4906388;29;20056;-57
2022/11/14 03:58:04;;;;;;;11.67;8.00;;;5.70;99.90;;;9.13;56.60;97410.53;4910818;29;20058;-57
2022/11/14 04:00:50;;;;;;;13.83;9.27;;;5.70;99.90;;;9.10;56.67;97399.41;4908652;29;20074;-57
2022/11/14 04:03:37;;;;;;;10.63;7.90;;;5.60;99.90;;;9.09;56.67;97395.06;4904232;29;20047;-54
2022/11/14 04:06:23;;;;;;;13.83;8.37;;;5.60;99.90;;;9.07;56.65;97404.03;4908714;29;20106;-56
2022/11/14 04:09:10;;;;;;;14.60;8.80;;;5.60;99.90;;;9.04;56.70;97403.50;4909263;29;20067;-55
2022/11/14 04:11:57;;;;;;;12.27;8.27;;;5.50;99.90;;;9.06;56.74;97402.34;4909806;29;20063;-53
2022/11/14 04:14:43;;;;;;;14.43;8.30;;;5.60;99.90;;;9.05;57.02;97426.41;4914178;29;20063;-57
2022/11/14 04:17:30;;;;;;;12.83;8.63;;;5.60;99.90;;;9.09;56.90;97426.94;4911672;29;20051;-55
2022/11/14 04:20:24;;;;;;;11.73;7.70;;;5.60;99.90;;;9.13;56.78;97429.13;4910106;29;20056;-55
2022/11/14 04:23:11;;;;;;;14.93;8.43;;;5.70;99.90;;;9.13;56.92;97429.13;4913934;29;20047;-56
2022/11/14 04:25:57;;;;;;;11.60;7.40;;;5.70;99.90;;;9.16;56.84;97422.66;4912101;29;20462;-55
2022/11/14 04:28:44;;;;;;;12.77;7.97;;;5.70;99.90;;;9.16;56.89;97415.53;4910490;29;20222;-55
2022/11/14 04:31:31;;;;;;;12.73;8.27;;;5.80;99.90;;;9.16;56.81;97415.53;4913147;29;20050;-52
2022/11/14 04:34:17;;;;;;;12.30;8.53;;;5.70;99.90;;;9.15;56.74;97423.63;4910268;29;20412;-53
2022/11/14 04:37:04;;;;;;;10.20;7.13;;;5.70;99.90;;;9.13;56.74;97412.34;4910205;29;20055;-55
2022/11/14 04:39:50;;;;;;;10.33;6.90;;;5.70;99.90;;;9.07;56.57;97408.50;4911651;29;20094;-57
2022/11/14 04:42:37;;;;;;;9.93;6.47;;;5.70;99.90;;;9.01;56.65;97412.59;4912485;29;20051;-55
2022/11/14 04:45:23;;;;;;;12.23;7.60;;;5.70;99.90;;;8.90;56.45;97415.56;4909496;29;20117;-57
2022/11/14 04:48:10;;;;;;;10.53;7.10;;;5.70;99.90;;;8.67;56.94;97418.69;4913051;29;20043;-56
2022/11/14 04:50:57;;;;;;;9.87;6.33;;;5.60;99.90;;;8.59;57.20;97405.38;4911051;29;20047;-57
2022/11/14 04:53:44;;;;;;;12.60;6.37;;;5.60;99.90;;;8.63;57.33;97413.88;4908490;29;20047;-55
2022/11/14 04:56:30;;;;;;;10.40;6.93;;;5.50;99.90;;;8.63;57.26;97392.63;4912127;29;20051;-56
2022/11/14 04:59:16;;;;;;;12.43;6.93;;;5.60;99.90;;;8.61;57.19;97374.22;4909323;29;20235;-57
2022/11/14 05:02:06;;;;;;;11.50;7.20;;;5.50;99.90;;;8.62;56.66;97367.06;4909643;29;20246;-56
2022/11/14 05:04:53;;;;;;;14.70;7.90;;;5.40;99.90;;;8.60;57.00;97359.25;4911868;29;20080;-55
2022/11/14 05:07:39;;;;;;;9.60;7.03;;;5.30;99.90;;;8.54;56.84;97356.41;4910511;29;20381;-57
2022/11/14 05:10:26;;;;;;;10.57;7.23;;;5.20;99.90;;;8.49;57.05;97375.44;4907055;29;20043;-55
2022/11/14 05:13:12;;;;;;;9.90;6.50;;;5.30;99.90;;;8.49;57.23;97383.38;4912765;29;20055;-54
2022/11/14 05:16:00;;;;;;;10.13;6.77;;;5.30;99.90;;;8.49;57.20;97364.81;4910701;29;20047;-55
2022/11/14 05:18:46;;;;;;;10.40;7.03;;;5.30;99.90;;;8.46;57.24;97359.84;4913461;29;20104;-54
2022/11/14 05:21:33;;;;;;;10.63;6.37;;;5.40;99.90;;;8.47;57.41;97356.19;4912313;29;20366;-54
2022/11/14 05:24:20;;;;;;;9.80;6.33;;;5.40;99.90;;;8.47;57.60;97361.50;4908990;29;20055;-57
2022/11/14 05:27:07;;;;;;;9.50;6.27;;;5.40;99.90;;;8.47;57.26;97367.66;4909236;29;20067;-56
2022/11/14 05:29:54;;;;;;;11.30;6.23;;;5.40;99.90;;;8.47;57.55;97359.69;4912127;29;20054;-57
2022/11/14 05:32:41;;;;;;;10.23;6.60;;;5.30;99.90;;;8.49;57.50;97364.81;4909595;29;20051;-57
2022/11/14 05:35:27;;;;;;;7.97;5.17;;;5.30;99.90;;;8.52;57.19;97353.91;4913486;29;20051;-57
2022/11/14 05:38:13;;;;;;;10.13;6.63;;;5.30;99.90;;;8.47;57.39;97335.81;4912214;29;20051;-56
2022/11/14 05:41:06;;;;;;;9.80;5.23;;;5.40;99.90;;;8.48;57.55;97344.59;4910237;29;20060;-57
2022/11/14 05:43:53;;;;;;;9.30;6.17;;;5.40;99.90;;;8.47;57.47;97334.97;4913041;29;20051;-56
2022/11/14 05:46:40;;;;;;;8.43;5.73;;;5.40;99.90;;;8.45;57.24;97340.44;4911644;29;20047;-56
2022/11/14 05:49:26;;;;;;;8.63;6.00;;;5.30;99.90;;;8.46;57.06;97344.75;4909804;29;20067;-55
2022/11/14 05:52:14;;;;;;;8.60;5.70;;;5.20;99.90;;;8.46;57.26;97360.66;4913122;29;20047;-57
2022/11/14 05:55:01;;;;;;;9.37;6.20;;;5.20;99.90;;;8.50;57.05;97347.94;4910844;29;20046;-57
2022/11/14 05:57:48;;;;;;;9.67;5.80;;;5.20;99.90;;;8.53;57.29;97349.44;4909594;29;20054;-56
2022/11/14 06:00:35;;;;;;;8.90;6.07;;;5.30;99.90;;;8.56;57.12;97354.44;4913292;29;20059;-54
2022/11/14 06:03:39;;;;;;;9.30;5.57;;;5.30;99.90;;;8.59;56.79;97359.44;4910337;29;20055;-57
2022/11/14 06:06:26;;;;;;;9.25;5.32;;;5.30;99.90;;;8.57;56.69;97362.25;4907558;29;20051;-57
2022/11/14 06:09:13;;;;;;;10.60;6.37;;;5.30;99.90;;;8.54;56.80;97359.91;4912338;29;20051;-54
2022/11/14 06:11:59;;;;;;;11.03;6.63;;;5.30;99.90;;;8.50;56.70;97355.88;4908499;29;20237;-56
2022/11/14 06:14:46;;;;;;;8.47;5.53;;;5.30;99.90;;;8.50;57.09;97371.81;4912727;29;20047;-56
2022/11/14 06:17:33;;;;;;;11.37;6.33;;;5.30;99.90;;;8.46;57.14;97378.41;4911071;29;20047;-59
2022/11/14 06:20:20;;;;;;;11.73;6.57;;;5.30;99.90;;;8.32;57.51;97374.47;4909230;29;20050;-58
2022/11/14 06:23:06;;;;;;;10.80;6.37;;;5.30;99.90;;;8.32;57.91;97384.22;4912626;29;20051;-57
2022/11/14 06:26:05;;;;;;;9.50;6.13;;;5.40;99.90;;;8.33;57.63;97381.41;4910543;29;20051;-59
2022/11/14 06:28:52;;;;;;;9.97;5.67;;;5.40;99.90;;;8.32;57.76;97384.22;4907203;29;20051;-58
2022/11/14 06:31:39;;;;;;;9.97;6.37;;;5.40;99.90;;;8.22;58.36;97384.31;4911209;29;20059;-57
2022/11/14 06:34:26;;;;;;;10.00;6.37;;;5.40;99.90;;;8.29;57.86;97374.75;4909827;29;20078;-58
2022/11/14 06:37:13;;;;;;;10.20;6.50;;;5.40;99.90;;;8.33;58.13;97380.59;4908389;29;20051;-57
2022/11/14 06:39:59;;;;;;;8.60;5.87;;;5.50;99.90;;;8.34;57.96;97369.84;4909227;29;20066;-57
2022/11/14 06:42:45;;;;;;;9.90;6.33;;;5.50;99.90;;;8.43;58.00;97365.44;4908778;29;20074;-58
2022/11/14 06:45:32;;;;;;;11.17;5.90;;;5.50;99.90;;;8.48;57.91;97365.81;4907766;29;20055;-59
2022/11/14 06:48:19;;;;;;;9.40;5.80;;;5.50;99.90;;;8.53;57.89;97375.97;4911409;29;20050;-59
2022/11/14 06:51:06;;;;;;;10.23;5.67;;;5.50;99.90;;;8.57;57.94;97377.31;4909631;29;20118;-58
2022/11/14 06:53:52;;;;;;;9.70;5.77;;;5.50;99.90;;;8.61;58.02;97362.78;4907874;29;20059;-59
2022/11/14 06:56:39;;;;;;;10.17;6.73;;;5.50;99.90;;;8.62;58.27;97367.06;4911724;29;20047;-58
2022/11/14 06:59:26;;;;;;;11.83;6.40;;;5.60;99.90;;;8.74;58.35;97363.16;4909233;29;20051;-60
2022/11/14 07:02:12;;;;;;;13.40;7.57;;;5.70;99.90;;;8.76;58.32;97377.13;4908040;29;20055;-57
2022/11/14 07:05:07;;;;;;;9.10;6.20;;;5.80;99.90;;;8.86;58.34;97369.06;4909976;29;20051;-58
2022/11/14 07:07:56;;;;;;;9.70;6.43;;;5.90;99.90;;;8.90;58.42;97367.75;4908343;29;20050;-56
2022/11/14 07:10:42;;;;;;;9.10;6.27;;;6.00;99.90;;;9.00;58.43;97371.13;4905479;29;20070;-59
2022/11/14 07:13:30;;;;;;;9.20;5.70;;;6.00;99.90;;;9.02;58.47;97373.63;4908827;29;20047;-58
2022/11/14 07:16:17;;;;;;;9.37;6.20;;;6.10;99.90;;;8.99;58.60;97366.78;4906891;29;20056;-58
2022/11/14 07:19:07;;;;;;;10.57;6.37;;;6.20;99.90;;;9.05;58.38;97360.03;4910587;29;20059;-58
2022/11/14 07:21:54;;;;;;;9.83;6.50;;;6.20;99.90;;;9.12;58.28;97346.97;4909587;29;20373;-59
2022/11/14 07:24:41;;;;;;;9.93;6.53;;;6.30;99.90;;;9.07;58.32;97356.25;4906888;29;20234;-58
2022/11/14 07:27:27;;;;;;;10.17;6.80;;;6.20;99.90;;;9.09;58.30;97366.69;4910252;29;20066;-57
2022/11/14 07:30:14;;;;;;;8.53;6.57;;;6.20;99.90;;;9.06;58.20;97367.00;4909452;29;20047;-58
2022/11/14 07:33:01;;;;;;;10.37;6.60;;;6.30;99.90;;;9.10;58.34;97373.66;4907852;29;20365;-58
2022/11/14 07:35:49;;;;;;;11.07;7.00;;;6.20;99.90;;;9.12;58.35;97361.06;4910543;29;20055;-58
2022/11/14 07:38:37;;;;;;;11.40;6.60;;;6.30;99.90;;;9.18;58.40;97363.06;4908114;29;20106;-57
2022/11/14 07:41:24;;;;;;;10.60;6.63;;;6.30;99.90;;;9.22;58.43;97363.59;4906480;29;20050;-55
2022/11/14 07:44:11;;;;;;;9.57;6.60;;;6.40;99.90;;;9.33;58.40;97373.13;4914613;29;20051;-56
2022/11/14 07:46:59;;;;;;;12.47;7.33;;;6.50;99.90;;;9.37;58.49;97388.56;4912824;29;20058;-59
2022/11/14 07:49:48;;;;;;;11.07;6.70;;;6.60;99.90;;;9.42;58.23;97385.41;4911086;29;20051;-59
2022/11/14 07:52:39;;;;;;;10.30;6.83;;;6.60;99.90;;;9.53;58.21;97386.97;4914563;29;20368;-59
2022/11/14 07:55:26;;;;;;;10.53;6.50;;;6.70;99.90;;;9.63;58.23;97392.97;4905610;29;20052;-59
2022/11/14 07:58:14;;;;;;;11.23;7.13;;;6.80;99.90;;;9.70;58.25;97403.81;4889837;29;20063;-59
2022/11/14 08:01:03;;;;;;;10.23;6.20;;;6.90;99.90;;;9.80;58.03;97410.63;4897707;29;20250;-59
2022/11/14 08:03:50;;;;;;;9.37;5.90;;;6.90;99.90;;;9.86;57.93;97401.19;4907619;29;20067;-58
2022/11/14 08:06:40;;;;;;;11.07;6.50;;;7.00;99.90;;;9.94;57.77;97411.81;4908445;29;20369;-59
2022/11/14 08:09:27;;;;;;;10.00;6.40;;;7.10;99.90;;;10.04;57.92;97423.16;4912976;29;20047;-59
2022/11/14 08:12:13;;;;;;;9.57;5.37;;;7.10;99.90;;;10.14;57.68;97424.81;4910309;29;20058;-59
2022/11/14 08:15:00;;;;;;;10.23;5.80;;;7.20;99.90;;;10.24;57.46;97431.66;4914268;29;20070;-57
2022/11/14 08:17:46;;;;;;;8.33;4.97;;;7.30;99.90;;;10.35;57.53;97425.25;4913647;29;20242;-56
2022/11/14 08:20:33;;;;;;;9.87;6.13;;;7.40;99.90;;;10.43;57.62;97424.41;4911289;29;20051;-52
2022/11/14 08:23:19;;;;;;;11.47;6.00;;;7.40;99.90;;;10.50;57.47;97430.72;4914798;29;20373;-55
2022/11/14 08:26:06;;;;;;;9.60;5.63;;;7.50;99.90;;;10.58;57.13;97429.91;4912895;29;20063;-58
2022/11/14 08:28:53;;;;;;;13.93;6.43;;;7.60;99.90;;;10.61;57.27;97425.06;4911342;29;20055;-60
2022/11/14 08:31:39;;;;;;;8.10;5.83;;;7.70;99.90;;;10.65;57.28;97436.22;4914899;29;20050;-60
2022/11/14 08:34:28;;;;;;;9.57;6.17;;;7.70;99.90;;;10.66;56.77;97432.53;4911481;29;20109;-60
2022/11/14 08:37:15;;;;;;;10.47;6.27;;;7.70;99.90;;;10.68;57.11;97441.19;4910482;29;20080;-59
2022/11/14 08:40:02;;;;;;;9.83;6.67;;;7.80;99.90;;;10.69;56.80;97444.72;4911242;29;20055;-60
2022/11/14 08:42:50;;;;;;;8.40;6.03;;;7.80;99.90;;;10.70;56.94;97449.88;4905196;29;20047;-60
2022/11/14 08:45:37;;;;;;;9.13;5.07;;;7.80;99.90;;;10.75;56.86;97442.19;4905332;29;20063;-60
2022/11/14 08:48:24;;;;;;;8.83;5.20;;;7.80;99.90;;;10.78;57.23;97447.22;4909736;29;20242;-60
2022/11/14 08:51:10;;;;;;;6.90;4.63;;;7.80;99.90;;;10.82;57.33;97443.22;4907512;29;20055;-60
2022/11/14 08:53:57;;;;;;;6.30;4.23;;;7.90;99.90;;;10.87;57.12;97449.84;4903241;29;20047;-60
2022/11/14 08:56:44;;;;;;;7.47;4.40;;;8.00;99.90;;;10.89;57.49;97454.00;4910210;29;20043;-60
2022/11/14 08:59:31;;;;;;;7.93;3.70;;;8.00;99.90;;;10.90;58.11;97450.34;4910461;29;20047;-60
2022/11/14 09:02:18;;;;;;;5.90;3.57;;;8.10;99.90;;;10.97;58.07;97458.50;4910222;29;20051;-59
2022/11/14 09:05:04;;;;;;;6.33;4.17;;;8.20;99.90;;;11.03;58.04;97455.16;4913661;29;20051;-59
2022/11/14 09:07:51;;;;;;;7.30;3.50;;;8.30;99.90;;;11.10;58.24;97465.97;4911720;29;20055;-59
2022/11/14 09:10:38;;;;;;;5.70;3.37;;;8.30;99.90;;;11.13;58.46;97453.16;4909381;29;20243;-59
2022/11/14 09:13:26;;;;;;;3.30;2.57;;;8.30;99.90;;;11.17;59.04;97441.16;4912713;29;20051;-59
2022/11/14 09:16:13;;;;;;;6.07;2.67;;;8.40;99.90;;;11.23;58.77;97452.97;4910335;29;20238;-59
2022/11/14 09:19:00;;;;;;;2.37;1.70;;;8.50;99.90;;;11.34;59.53;97449.09;4909231;29;20047;-59
2022/11/14 09:21:46;;;;;;;3.03;1.83;;;8.60;99.90;;;11.37;59.08;97448.78;4912752;29;20055;-59
2022/11/14 09:24:33;;;;;;;4.13;2.07;;;8.70;99.90;;;11.44;59.13;97447.09;4910295;29;20373;-60
2022/11/14 09:27:20;;;;;;;2.30;1.70;;;8.70;99.90;;;11.52;59.59;97449.72;4908763;29;20064;-60
2022/11/14 09:30:07;;;;;;;3.30;1.70;;;8.80;99.90;;;11.57;59.37;97443.88;4912609;29;20254;-60
2022/11/14 09:33:00;;;;;;;2.33;1.70;;;8.80;99.90;;;11.61;59.76;97438.03;4910737;29;20047;-60
2022/11/14 09:35:59;;;;;;;2.80;1.50;;;8.90;99.90;;;11.70;59.40;97448.66;4912304;29;20345;-60
2022/11/14 09:38:46;;;;;;;2.93;1.40;;;8.90;99.90;;;11.72;59.35;97428.81;4911390;29;20248;-60
2022/11/14 09:41:55;;;;;;;2.43;1.50;;;8.90;99.90;;;11.80;59.31;97439.44;4909545;29;20051;-60
2022/11/14 09:45:06;;;;;;;2.87;1.63;;;9.00;99.90;;;11.88;59.31;97433.22;4912150;29;20055;-59
2022/11/14 09:48:06;;;;;;;2.80;1.80;;;9.10;99.90;;;11.99;59.59;97424.88;4908979;29;20055;-60
2022/11/14 09:51:02;;;;;;;2.40;1.50;;;9.20;99.90;;;12.08;59.54;97435.47;4911449;29;20051;-60
2022/11/14 09:54:26;;;;;;;3.90;1.77;;;9.30;99.90;;;12.15;59.02;97423.09;4909670;29;20238;-60
2022/11/14 09:57:19;;;;;;;2.37;1.47;;;9.40;99.90;;;12.28;59.07;97422.53;4911444;29;20055;-60
2022/11/14 10:00:13;;;;;;;3.30;1.60;;;9.50;99.90;;;12.34;59.37;97424.50;4908988;29;20051;-60
2022/11/14 10:03:22;;;;;;;2.87;1.67;;;9.60;99.90;;;12.37;59.25;97416.97;4912929;29;20051;-60
2022/11/14 10:06:27;;;;;;;5.77;2.00;;;9.60;99.90;;;12.45;59.39;97413.41;4909052;29;20046;-60
2022/11/14 10:09:50;;;;;;;3.77;1.97;;;9.70;99.90;;;12.50;59.06;97410.19;4912684;29;20055;-60
2022/11/14 10:12:54;;;;;;;4.53;1.73;;;9.80;99.90;;;12.56;59.11;97412.97;4907937;29;20377;-60
2022/11/14 10:16:00;;;;;;;3.58;1.73;;;9.80;99.90;;;12.61;58.99;97413.25;4910554;29;20234;-60
2022/11/14 10:19:08;;;;;;;3.90;1.63;;;9.80;99.90;;;12.67;59.06;97416.22;4908498;29;20066;-60
2022/11/14 10:22:04;;;;;;;5.63;2.37;;;9.80;99.90;;;12.73;59.05;97416.31;4911779;29;20054;-60
2022/11/14 10:25:13;;;;;;;4.63;2.10;;;9.90;99.90;;;12.82;59.22;97408.25;4908260;29;20055;-60
2022/11/14 10:28:36;;;;;;;4.20;2.10;;;10.00;99.90;;;12.90;59.25;97408.19;4911458;29;20396;-60
2022/11/14 10:31:44;;;;;;;1.97;1.67;;;10.20;99.90;;;12.99;59.46;97402.56;4908445;29;20047;-60
2022/11/14 10:34:46;;;;;;;5.00;2.47;;;10.30;99.90;;;13.09;59.64;97398.81;4909770;29;20051;-60
2022/11/14 10:37:35;;;;;;;3.53;1.90;;;10.40;99.90;;;13.17;58.90;97396.03;4908115;29;20050;-60
2022/11/14 10:40:40;;;;;;;4.03;2.73;;;10.40;99.90;;;13.25;59.06;97408.50;4907441;29;20051;-60
2022/11/14 10:43:49;;;;;;;2.97;1.80;;;10.40;99.90;;;13.28;58.96;97392.91;4907875;29;20066;-60
2022/11/14 10:46:47;;;;;;;6.37;3.30;;;10.50;99.90;;;13.35;58.78;97396.53;4910829;29;20051;-60
2022/11/14 10:49:35;;;;;;;1.90;1.70;;;10.50;99.90;;;13.40;58.69;97401.34;4908558;29;20070;-61
2022/11/14 10:52:40;;;;;;;2.77;1.80;;;10.60;99.90;;;13.42;58.33;97398.47;4911944;29;20051;-60
2022/11/14 10:55:27;;;;;;;3.47;1.67;;;10.60;99.90;;;13.41;58.14;97400.31;4908769;29;20235;-59
2022/11/14 10:58:34;;;;;;;2.80;1.92;;;10.60;99.90;;;13.42;58.13;97403.81;4906517;29;20050;-60
2022/11/14 11:01:39;;;;;;;6.70;2.17;;;10.50;99.90;;;13.39;58.30;97386.28;4909520;29;20059;-60
2022/11/14 11:04:31;;;;;;;3.40;2.00;;;10.50;99.90;;;13.38;58.36;97385.47;4907786;29;20242;-60
2022/11/14 11:13:58;;;;;;;3.17;2.17;;;10.60;99.90;;;13.37;57.94;97374.97;4910881;29;20059;-60
2022/11/14 11:16:46;;;;;;;3.17;1.63;;;10.50;99.90;;;13.36;57.84;97381.34;4907039;29;20067;-59
2022/11/14 11:19:33;;;;;;;2.93;2.13;;;10.50;99.90;;;13.37;57.78;97378.44;4912144;29;20059;-60
2022/11/14 11:22:35;;;;;;;3.27;2.50;;;10.50;99.90;;;13.37;57.84;97373.09;4909374;29;20055;-60
2022/11/14 11:25:25;;;;;;;3.33;2.33;;;10.50;99.90;;;13.44;57.45;97380.41;4906501;29;20067;-60
2022/11/14 11:28:18;;;;;;;2.73;1.83;;;10.50;99.90;;;13.45;57.62;97374.03;4911365;29;20053;-60
2022/11/14 11:31:08;;;;;;;4.53;2.60;;;10.60;99.90;;;13.44;57.59;97378.56;4908630;29;20051;-60
2022/11/14 11:34:01;;;;;;;2.47;1.90;;;10.60;99.90;;;13.44;57.51;97373.22;4905792;29;20051;-60
2022/11/14 11:37:12;;;;;;;4.43;1.80;;;10.60;99.90;;;13.46;57.16;97362.34;4909913;29;20047;-60
2022/11/14 11:40:05;;;;;;;2.40;1.80;;;10.60;99.90;;;13.43;57.54;97363.50;4906908;29;20049;-60
2022/11/14 11:43:06;;;;;;;3.60;1.70;;;10.60;99.90;;;13.50;57.32;97359.09;4910914;29;20051;-60
2022/11/14 11:46:27;;;;;;;2.33;1.53;;;10.70;99.90;;;13.57;57.25;97354.66;4907065;29;20054;-60
2022/11/14 11:49:22;;;;;;;1.50;1.40;;;10.80;99.90;;;13.57;57.26;97353.81;4909564;29;20059;-60
2022/11/14 11:52:44;;;;;;;2.30;1.33;;;10.80;99.90;;;13.62;57.21;97353.25;4907601;29;20235;-60
2022/11/14 11:55:50;;;;;;;2.00;1.20;;;10.80;99.90;;;13.67;57.07;97354.38;4909118;29;20062;-60
2022/11/14 11:58:56;;;;;;;1.90;1.63;;;10.90;99.90;;;13.71;56.95;97352.97;4906882;29;20067;-60
2022/11/14 12:01:43;;;;;;;1.63;1.37;;;10.90;99.90;;;13.71;56.63;97342.25;4909123;29;20059;-60
2022/11/14 12:04:30;;;;;;;2.38;1.67;;;10.90;99.90;;;13.77;56.82;97343.34;4908192;29;20067;-60
2022/11/14 12:07:32;;;;;;;2.83;2.00;;;11.00;99.90;;;13.81;56.61;97350.00;4905500;29;20051;-60